Terminal Aerodrome Forecast
Issued by NWS Sioux Falls, SD

Home | Current Version | Previous Version | Text Only | Print | Product List | Glossary On
Versions: 1 2 3 4 5 6 7 8 9 10 11 12 13 14 15 16 17 18 19 20 21 22
000
FTUS43 KFSD 261120
TAFFSD
TAF
KFSD 261120Z 2612/2712 27010KT P6SM BKN080
     FM261400 31014G20KT P6SM SKC
     FM261700 32017G24KT P6SM SKC
     FM262300 32008KT P6SM SKC
     FM270500 VRB04KT P6SM SCT120=

USA.gov is the U.S. government's official web portal to all federal, state and local government web resources and services.